Saturday, November 01, 2014
09:10 UTC
  |  Log In   |  Register Free
Airport Search:

Lincoln Airport
(KLNK)

FAA data valid effective September 18, 2014 - November 13, 2014 (unless otherwise noted).

 
 
 
 
 
 
 
 
 
 
 
 
 
 

Current Aviation Weather for Lincoln Airport (KLNK)

The most recent METAR observation for KLNK was updated at: 0811
METAR Summary (Translated METAR)
KLNK
010754Z 17003KT 10SM CLR M02/M07 A3044 RMK AO2 SLP319 T10171072
KAHQ
010755Z AUTO 14005KT 10SM CLR M04/M07 A3043 RMK AO2 T10421074
(24.6 nm NE from KLNK)
KBIE
010755Z AUTO 12004KT 10SM CLR M03/M07 A3043 RMK AO2 T10261075
(33 nm SE from KLNK)
TAF Summary (Translated TAF)
KLNK
010520Z 0106/0206 14008KT P6SM BKN250 FM011400 15012G19KT P6SM SCT250 FM011600 16018G25KT P6SM SCT250 FM020000 16013G20KT P6SM BKN200 WS015/21040KT
  Airport Weather Conditions for KLNK

 Current Weather at LNK
29° F
Fair
South winds at 3.5 mph
LNK NOAA Radar

Pressure: 30.44 in
Humidity: 66%
Wind: South at 3.5 MPH (3 KT)
Dew Point: 19.0°F
Visibility: 10.00 mi


Airport Weather Forecast for KLNK

Translated METAR and TAF for KLNK
Translated METAR for KLNK (0906 UTC 01 November 2014)
found at http://aviationweather.gov/adds/metars/
 
METAR text: KLNK 010854Z 16008KT 10SM CLR M03/M08 A3043 RMK AO2 SLP315 T10331083 58007
Conditions at: KLNK (LINCOLN , NE, US) observed 0854 UTC 01 November 2014
Temperature: -3.3°C (26°F)
Dewpoint: -8.3°C (17°F) [RH = 68%]
Pressure (altimeter): 30.43 inches Hg (1030.6 mb)
[Sea-level pressure: 1031.5 mb]
Winds: from the SSE (160 degrees) at 9 MPH (8 knots; 4.2 m/s)
Visibility: 10 or more miles (16+ km)
Ceiling: at least 12,000 feet AGL
Clouds: sky clear below 12,000 feet AGL
Weather: no significant weather observed at this time
Translated TAF for KLNK
Forecast for: KLNK (LINCOLN , NE, US)
TAF Text: KLNK 010520Z 0106/0206 14008KT P6SM BKN250
Forecast period: 0600 to 1400 UTC 01 November 2014
Forecast type: FROM: standard forecast or significant change
Winds: from the SE (140 degrees) at 9 MPH (8 knots; 4.2 m/s)
Visibility: 6 or more miles (10+ km)
Ceiling: 25000 feet AGL
Clouds: broken clouds at 25000 feet AGL
Weather: no significant weather forecast for this period
TAF Text: FM011400 15012G19KT P6SM SCT250
Forecast period: 1400 to 1600 UTC 01 November 2014
Forecast type: FROM: standard forecast or significant change
Winds: from the SSE (150 degrees) at 14 MPH (12 knots; 6.2 m/s)
gusting to 22 MPH (19 knots; 9.9 m/s)
Visibility: 6 or more miles (10+ km)
Clouds: scattered clouds at 25000 feet AGL
Weather: no significant weather forecast for this period
TAF Text: FM011600 16018G25KT P6SM SCT250
Forecast period: 1600 UTC 01 November 2014 to 0000 UTC 02 November 2014
Forecast type: FROM: standard forecast or significant change
Winds: from the SSE (160 degrees) at 21 MPH (18 knots; 9.4 m/s)
gusting to 29 MPH (25 knots; 13.0 m/s)
Visibility: 6 or more miles (10+ km)
Clouds: scattered clouds at 25000 feet AGL
Weather: no significant weather forecast for this period
TAF Text: FM020000 16013G20KT P6SM BKN200 WS015/21040KT
Forecast period: 0000 to 0600 UTC 02 November 2014
Forecast type: FROM: standard forecast or significant change
Winds: from the SSE (160 degrees) at 15 MPH (13 knots; 6.8 m/s)
gusting to 23 MPH (20 knots; 10.4 m/s)
Visibility: 6 or more miles (10+ km)
Ceiling: 20000 feet AGL
Clouds: broken clouds at 20000 feet AGL
Wind shear: at 1500 feet ( 457 m) AGL, from the SSW (210 degrees) at 46 MPH (40 knots; 20.8 m/s)
Weather: no significant weather forecast for this period

Find All Airport Services Find A Hotel Find A Rental Car Find A Golf Course Find A Restaurant $100 Hamburger



FBO's on the Field
FBO Company Facility Photos Services Transportation Aviation Fuel Prices: Prices include tax
Catering Weather Repair Courtesy Rental Type 100LL JetA JetA+ MOGAS 8087
 
Duncan Aviation

This FBO has not yet been rated
FS:Avfuel
Last Updated: Oct-28
Login to update fuel prices
SS:
Contact Duncan AviationMore FBO Information
 
Silverhawk Aviation

This FBO has not yet been rated
FS:Phillips 66
Last Updated: Oct-28
Login to update fuel prices
SS:
Contact Silverhawk AviationMore FBO Information
 
Add another FBO Facility Photos Catering Weather Repair Courtesy Rental Type 100LL JetA JetA+ MOGAS 8087
Services Transportation Aviation Fuel Prices: Prices include tax


model-print
model-print
model-print
model-print